sensor_id;sensor_type;location;lat;lon;timestamp;P1;durP1;ratioP1;P2;durP2;ratioP2
75912;SDS011;64592;52.168;21.040;2023-06-04T00:00:36;7.75;;;4.20;;
75912;SDS011;64592;52.168;21.040;2023-06-04T00:05:37;10.27;;;4.03;;
75912;SDS011;64592;52.168;21.040;2023-06-04T00:10:39;10.45;;;4.10;;
75912;SDS011;64592;52.168;21.040;2023-06-04T00:15:42;8.27;;;4.18;;
75912;SDS011;64592;52.168;21.040;2023-06-04T00:20:44;9.82;;;3.83;;
75912;SDS011;64592;52.168;21.040;2023-06-04T00:25:45;10.80;;;4.55;;
75912;SDS011;64592;52.168;21.040;2023-06-04T00:30:48;8.63;;;3.95;;
75912;SDS011;64592;52.168;21.040;2023-06-04T00:35:50;7.53;;;4.53;;
75912;SDS011;64592;52.168;21.040;2023-06-04T00:40:52;10.55;;;4.30;;
75912;SDS011;64592;52.168;21.040;2023-06-04T00:45:55;7.75;;;3.97;;
75912;SDS011;64592;52.168;21.040;2023-06-04T00:50:57;8.88;;;4.20;;
75912;SDS011;64592;52.168;21.040;2023-06-04T00:55:58;8.07;;;4.38;;
75912;SDS011;64592;52.168;21.040;2023-06-04T01:01:01;8.27;;;3.95;;
75912;SDS011;64592;52.168;21.040;2023-06-04T01:06:10;8.05;;;4.60;;
75912;SDS011;64592;52.168;21.040;2023-06-04T01:11:14;7.22;;;3.83;;
75912;SDS011;64592;52.168;21.040;2023-06-04T01:16:17;8.07;;;4.13;;
75912;SDS011;64592;52.168;21.040;2023-06-04T01:21:19;9.40;;;4.47;;
75912;SDS011;64592;52.168;21.040;2023-06-04T01:26:21;9.50;;;4.43;;
75912;SDS011;64592;52.168;21.040;2023-06-04T01:31:24;12.73;;;4.78;;
75912;SDS011;64592;52.168;21.040;2023-06-04T01:36:28;7.50;;;4.40;;
75912;SDS011;64592;52.168;21.040;2023-06-04T01:41:30;10.13;;;4.35;;
75912;SDS011;64592;52.168;21.040;2023-06-04T01:46:33;8.73;;;4.35;;
75912;SDS011;64592;52.168;21.040;2023-06-04T01:51:34;9.15;;;4.68;;
75912;SDS011;64592;52.168;21.040;2023-06-04T01:56:36;10.00;;;4.68;;
75912;SDS011;64592;52.168;21.040;2023-06-04T02:01:39;6.53;;;3.85;;
75912;SDS011;64592;52.168;21.040;2023-06-04T02:06:41;10.80;;;4.13;;
75912;SDS011;64592;52.168;21.040;2023-06-04T02:11:43;6.35;;;3.42;;
75912;SDS011;64592;52.168;21.040;2023-06-04T02:16:46;6.80;;;3.97;;
75912;SDS011;64592;52.168;21.040;2023-06-04T02:21:49;8.10;;;3.40;;
75912;SDS011;64592;52.168;21.040;2023-06-04T02:26:51;8.10;;;4.32;;
75912;SDS011;64592;52.168;21.040;2023-06-04T02:31:54;5.85;;;3.78;;
75912;SDS011;64592;52.168;21.040;2023-06-04T02:36:56;9.73;;;4.05;;
75912;SDS011;64592;52.168;21.040;2023-06-04T02:41:58;7.85;;;4.30;;
75912;SDS011;64592;52.168;21.040;2023-06-04T02:47:01;6.63;;;3.83;;
75912;SDS011;64592;52.168;21.040;2023-06-04T02:52:03;11.07;;;4.22;;
75912;SDS011;64592;52.168;21.040;2023-06-04T02:57:06;6.70;;;4.95;;
75912;SDS011;64592;52.168;21.040;2023-06-04T03:02:09;7.82;;;4.60;;
75912;SDS011;64592;52.168;21.040;2023-06-04T03:07:12;8.50;;;4.28;;
75912;SDS011;64592;52.168;21.040;2023-06-04T03:12:15;8.00;;;4.10;;
75912;SDS011;64592;52.168;21.040;2023-06-04T03:17:18;5.68;;;3.42;;
75912;SDS011;64592;52.168;21.040;2023-06-04T03:22:20;8.43;;;3.75;;
75912;SDS011;64592;52.168;21.040;2023-06-04T03:27:21;9.10;;;3.50;;
75912;SDS011;64592;52.168;21.040;2023-06-04T03:32:24;8.43;;;3.88;;
75912;SDS011;64592;52.168;21.040;2023-06-04T03:37:27;7.57;;;4.00;;
75912;SDS011;64592;52.168;21.040;2023-06-04T03:42:28;8.25;;;4.30;;
75912;SDS011;64592;52.168;21.040;2023-06-04T03:47:31;6.68;;;4.07;;
75912;SDS011;64592;52.168;21.040;2023-06-04T03:52:33;6.57;;;3.90;;
75912;SDS011;64592;52.168;21.040;2023-06-04T03:57:35;7.22;;;4.20;;
75912;SDS011;64592;52.168;21.040;2023-06-04T04:02:39;6.10;;;3.15;;
75912;SDS011;64592;52.168;21.040;2023-06-04T04:07:41;7.28;;;3.88;;
75912;SDS011;64592;52.168;21.040;2023-06-04T04:12:43;5.47;;;3.13;;
75912;SDS011;64592;52.168;21.040;2023-06-04T04:17:46;5.88;;;3.55;;
75912;SDS011;64592;52.168;21.040;2023-06-04T04:22:48;6.57;;;3.65;;
75912;SDS011;64592;52.168;21.040;2023-06-04T04:27:50;6.97;;;3.50;;
75912;SDS011;64592;52.168;21.040;2023-06-04T04:32:53;6.13;;;2.75;;
75912;SDS011;64592;52.168;21.040;2023-06-04T04:37:56;5.97;;;2.90;;
75912;SDS011;64592;52.168;21.040;2023-06-04T04:42:58;4.68;;;2.50;;
75912;SDS011;64592;52.168;21.040;2023-06-04T04:48:01;6.30;;;3.00;;
75912;SDS011;64592;52.168;21.040;2023-06-04T04:53:03;6.80;;;2.70;;
75912;SDS011;64592;52.168;21.040;2023-06-04T04:58:04;4.25;;;2.55;;
75912;SDS011;64592;52.168;21.040;2023-06-04T05:03:07;6.03;;;2.78;;
75912;SDS011;64592;52.168;21.040;2023-06-04T05:08:09;4.50;;;2.42;;
75912;SDS011;64592;52.168;21.040;2023-06-04T05:13:11;4.18;;;2.40;;
75912;SDS011;64592;52.168;21.040;2023-06-04T05:18:14;5.80;;;2.97;;
75912;SDS011;64592;52.168;21.040;2023-06-04T05:23:17;4.25;;;2.40;;
75912;SDS011;64592;52.168;21.040;2023-06-04T05:28:18;5.75;;;2.28;;
75912;SDS011;64592;52.168;21.040;2023-06-04T05:33:22;5.65;;;2.83;;
75912;SDS011;64592;52.168;21.040;2023-06-04T05:38:23;7.65;;;2.40;;
75912;SDS011;64592;52.168;21.040;2023-06-04T05:43:26;5.10;;;2.67;;
75912;SDS011;64592;52.168;21.040;2023-06-04T05:48:29;5.05;;;2.78;;
75912;SDS011;64592;52.168;21.040;2023-06-04T05:53:31;4.35;;;2.38;;
75912;SDS011;64592;52.168;21.040;2023-06-04T05:58:34;5.00;;;2.17;;
75912;SDS011;64592;52.168;21.040;2023-06-04T06:03:37;3.80;;;2.28;;
75912;SDS011;64592;52.168;21.040;2023-06-04T06:08:38;3.15;;;2.10;;
75912;SDS011;64592;52.168;21.040;2023-06-04T06:13:40;4.70;;;2.35;;
75912;SDS011;64592;52.168;21.040;2023-06-04T06:18:43;3.70;;;1.95;;
75912;SDS011;64592;52.168;21.040;2023-06-04T06:23:45;4.47;;;2.33;;
75912;SDS011;64592;52.168;21.040;2023-06-04T06:28:46;5.60;;;2.40;;
75912;SDS011;64592;52.168;21.040;2023-06-04T06:33:50;3.13;;;1.80;;
75912;SDS011;64592;52.168;21.040;2023-06-04T06:38:51;3.50;;;2.03;;
75912;SDS011;64592;52.168;21.040;2023-06-04T06:43:53;4.90;;;1.80;;
75912;SDS011;64592;52.168;21.040;2023-06-04T06:48:56;2.45;;;1.40;;
75912;SDS011;64592;52.168;21.040;2023-06-04T06:53:58;3.38;;;1.60;;
75912;SDS011;64592;52.168;21.040;2023-06-04T06:59:00;3.15;;;1.20;;
75912;SDS011;64592;52.168;21.040;2023-06-04T07:04:03;2.53;;;1.33;;
75912;SDS011;64592;52.168;21.040;2023-06-04T07:09:05;3.13;;;1.25;;
75912;SDS011;64592;52.168;21.040;2023-06-04T07:14:07;3.30;;;1.83;;
75912;SDS011;64592;52.168;21.040;2023-06-04T07:19:10;3.05;;;1.60;;
75912;SDS011;64592;52.168;21.040;2023-06-04T07:24:12;3.05;;;1.27;;
75912;SDS011;64592;52.168;21.040;2023-06-04T07:29:13;2.63;;;0.90;;
75912;SDS011;64592;52.168;21.040;2023-06-04T07:34:17;2.55;;;1.27;;
75912;SDS011;64592;52.168;21.040;2023-06-04T07:39:18;3.03;;;1.50;;
75912;SDS011;64592;52.168;21.040;2023-06-04T07:44:20;2.53;;;1.30;;
75912;SDS011;64592;52.168;21.040;2023-06-04T07:49:23;3.45;;;1.95;;
75912;SDS011;64592;52.168;21.040;2023-06-04T07:54:25;3.17;;;1.30;;
75912;SDS011;64592;52.168;21.040;2023-06-04T07:59:26;2.85;;;1.58;;
75912;SDS011;64592;52.168;21.040;2023-06-04T08:04:30;2.92;;;1.80;;
75912;SDS011;64592;52.168;21.040;2023-06-04T08:09:33;2.08;;;1.35;;
75912;SDS011;64592;52.168;21.040;2023-06-04T08:14:35;3.00;;;1.40;;
75912;SDS011;64592;52.168;21.040;2023-06-04T08:19:39;3.05;;;1.33;;
75912;SDS011;64592;52.168;21.040;2023-06-04T08:24:40;2.80;;;1.60;;
75912;SDS011;64592;52.168;21.040;2023-06-04T08:29:42;2.95;;;1.30;;
75912;SDS011;64592;52.168;21.040;2023-06-04T08:34:46;1.98;;;1.30;;
75912;SDS011;64592;52.168;21.040;2023-06-04T08:39:47;2.67;;;1.52;;
75912;SDS011;64592;52.168;21.040;2023-06-04T08:44:49;2.30;;;1.30;;
75912;SDS011;64592;52.168;21.040;2023-06-04T08:49:54;4.32;;;1.95;;
75912;SDS011;64592;52.168;21.040;2023-06-04T08:55:00;3.70;;;1.45;;
75912;SDS011;64592;52.168;21.040;2023-06-04T09:00:03;2.67;;;1.10;;
75912;SDS011;64592;52.168;21.040;2023-06-04T09:05:09;2.70;;;1.15;;
75912;SDS011;64592;52.168;21.040;2023-06-04T09:10:19;3.15;;;1.42;;
75912;SDS011;64592;52.168;21.040;2023-06-04T09:15:23;2.90;;;1.30;;
75912;SDS011;64592;52.168;21.040;2023-06-04T09:20:26;2.03;;;1.35;;
75912;SDS011;64592;52.168;21.040;2023-06-04T09:25:29;2.42;;;1.55;;
75912;SDS011;64592;52.168;21.040;2023-06-04T09:30:30;4.05;;;1.50;;
75912;SDS011;64592;52.168;21.040;2023-06-04T09:35:34;2.65;;;1.40;;
75912;SDS011;64592;52.168;21.040;2023-06-04T09:40:36;3.50;;;1.42;;
75912;SDS011;64592;52.168;21.040;2023-06-04T09:45:39;2.10;;;1.42;;
75912;SDS011;64592;52.168;21.040;2023-06-04T09:50:42;2.20;;;1.42;;
75912;SDS011;64592;52.168;21.040;2023-06-04T09:55:55;2.58;;;1.30;;
75912;SDS011;64592;52.168;21.040;2023-06-04T10:00:58;1.63;;;1.20;;
75912;SDS011;64592;52.168;21.040;2023-06-04T10:06:03;3.35;;;1.50;;
75912;SDS011;64592;52.168;21.040;2023-06-04T10:11:06;2.10;;;1.00;;
75912;SDS011;64592;52.168;21.040;2023-06-04T10:16:08;1.80;;;1.27;;
75912;SDS011;64592;52.168;21.040;2023-06-04T10:21:13;2.42;;;1.48;;
75912;SDS011;64592;52.168;21.040;2023-06-04T10:26:15;2.88;;;1.20;;
75912;SDS011;64592;52.168;21.040;2023-06-04T10:31:17;2.20;;;1.40;;
75912;SDS011;64592;52.168;21.040;2023-06-04T10:36:21;2.03;;;1.30;;
75912;SDS011;64592;52.168;21.040;2023-06-04T10:41:24;2.63;;;1.13;;
75912;SDS011;64592;52.168;21.040;2023-06-04T10:46:36;2.08;;;1.42;;
75912;SDS011;64592;52.168;21.040;2023-06-04T10:51:40;3.15;;;1.50;;
75912;SDS011;64592;52.168;21.040;2023-06-04T10:56:43;3.05;;;1.38;;
75912;SDS011;64592;52.168;21.040;2023-06-04T11:01:45;2.95;;;1.40;;
75912;SDS011;64592;52.168;21.040;2023-06-04T11:07:00;1.42;;;1.05;;
75912;SDS011;64592;52.168;21.040;2023-06-04T11:12:04;2.47;;;1.10;;
75912;SDS011;64592;52.168;21.040;2023-06-04T11:17:09;2.13;;;1.23;;
75912;SDS011;64592;52.168;21.040;2023-06-04T11:22:13;2.00;;;1.17;;
75912;SDS011;64592;52.168;21.040;2023-06-04T11:27:15;3.22;;;1.30;;
75912;SDS011;64592;52.168;21.040;2023-06-04T11:32:20;1.90;;;1.20;;
75912;SDS011;64592;52.168;21.040;2023-06-04T11:37:24;3.33;;;1.20;;
75912;SDS011;64592;52.168;21.040;2023-06-04T11:42:30;4.25;;;2.40;;
75912;SDS011;64592;52.168;21.040;2023-06-04T11:47:32;2.10;;;1.10;;
75912;SDS011;64592;52.168;21.040;2023-06-04T11:52:35;2.65;;;1.48;;
75912;SDS011;64592;52.168;21.040;2023-06-04T11:57:37;1.85;;;1.17;;
75912;SDS011;64592;52.168;21.040;2023-06-04T12:02:48;2.42;;;1.27;;
75912;SDS011;64592;52.168;21.040;2023-06-04T12:08:03;1.33;;;0.98;;
75912;SDS011;64592;52.168;21.040;2023-06-04T12:13:06;1.95;;;1.10;;
75912;SDS011;64592;52.168;21.040;2023-06-04T12:18:07;1.60;;;1.08;;
75912;SDS011;64592;52.168;21.040;2023-06-04T12:23:18;1.90;;;1.10;;
75912;SDS011;64592;52.168;21.040;2023-06-04T12:28:21;1.23;;;1.00;;
75912;SDS011;64592;52.168;21.040;2023-06-04T12:33:23;2.60;;;1.20;;
75912;SDS011;64592;52.168;21.040;2023-06-04T12:38:26;4.18;;;1.10;;
75912;SDS011;64592;52.168;21.040;2023-06-04T12:43:28;3.35;;;1.20;;
75912;SDS011;64592;52.168;21.040;2023-06-04T12:48:33;2.83;;;1.13;;
75912;SDS011;64592;52.168;21.040;2023-06-04T12:53:36;3.15;;;1.27;;
75912;SDS011;64592;52.168;21.040;2023-06-04T12:58:41;2.97;;;1.23;;
75912;SDS011;64592;52.168;21.040;2023-06-04T13:03:42;3.90;;;1.27;;
75912;SDS011;64592;52.168;21.040;2023-06-04T13:08:46;3.15;;;1.30;;
75912;SDS011;64592;52.168;21.040;2023-06-04T13:13:47;3.33;;;1.40;;
75912;SDS011;64592;52.168;21.040;2023-06-04T13:18:49;2.83;;;1.13;;
75912;SDS011;64592;52.168;21.040;2023-06-04T13:23:52;1.92;;;1.25;;
75912;SDS011;64592;52.168;21.040;2023-06-04T13:28:56;3.90;;;1.42;;
75912;SDS011;64592;52.168;21.040;2023-06-04T13:33:57;2.47;;;1.52;;
75912;SDS011;64592;52.168;21.040;2023-06-04T13:39:00;1.80;;;1.20;;
75912;SDS011;64592;52.168;21.040;2023-06-04T13:44:02;2.08;;;1.30;;
75912;SDS011;64592;52.168;21.040;2023-06-04T13:49:04;2.33;;;1.30;;
75912;SDS011;64592;52.168;21.040;2023-06-04T13:54:07;2.65;;;1.30;;
75912;SDS011;64592;52.168;21.040;2023-06-04T13:59:09;2.20;;;1.15;;
75912;SDS011;64592;52.168;21.040;2023-06-04T14:04:10;2.95;;;1.60;;
75912;SDS011;64592;52.168;21.040;2023-06-04T14:09:14;3.78;;;1.20;;
75912;SDS011;64592;52.168;21.040;2023-06-04T14:14:16;1.98;;;1.13;;
75912;SDS011;64592;52.168;21.040;2023-06-04T14:19:18;2.75;;;1.35;;
75912;SDS011;64592;52.168;21.040;2023-06-04T14:24:21;1.42;;;1.13;;
75912;SDS011;64592;52.168;21.040;2023-06-04T14:29:23;2.35;;;1.27;;
75912;SDS011;64592;52.168;21.040;2023-06-04T14:34:25;4.20;;;1.30;;
75912;SDS011;64592;52.168;21.040;2023-06-04T14:39:28;2.67;;;1.73;;
75912;SDS011;64592;52.168;21.040;2023-06-04T14:44:29;2.63;;;1.42;;
75912;SDS011;64592;52.168;21.040;2023-06-04T14:49:32;2.45;;;1.15;;
75912;SDS011;64592;52.168;21.040;2023-06-04T14:54:35;2.50;;;1.42;;
75912;SDS011;64592;52.168;21.040;2023-06-04T14:59:36;3.75;;;1.65;;
75912;SDS011;64592;52.168;21.040;2023-06-04T15:04:39;3.88;;;1.75;;
75912;SDS011;64592;52.168;21.040;2023-06-04T15:09:45;2.72;;;1.42;;
75912;SDS011;64592;52.168;21.040;2023-06-04T15:14:47;2.33;;;1.15;;
75912;SDS011;64592;52.168;21.040;2023-06-04T15:19:49;2.00;;;1.40;;
75912;SDS011;64592;52.168;21.040;2023-06-04T15:24:52;1.98;;;1.10;;
75912;SDS011;64592;52.168;21.040;2023-06-04T15:29:54;2.40;;;1.50;;
75912;SDS011;64592;52.168;21.040;2023-06-04T15:34:55;3.42;;;1.33;;
75912;SDS011;64592;52.168;21.040;2023-06-04T15:39:59;2.35;;;1.45;;
75912;SDS011;64592;52.168;21.040;2023-06-04T15:45:01;3.28;;;1.60;;
75912;SDS011;64592;52.168;21.040;2023-06-04T15:50:04;3.75;;;1.33;;
75912;SDS011;64592;52.168;21.040;2023-06-04T15:55:08;2.83;;;1.25;;
75912;SDS011;64592;52.168;21.040;2023-06-04T16:00:10;2.95;;;1.20;;
75912;SDS011;64592;52.168;21.040;2023-06-04T16:05:12;2.13;;;1.27;;
75912;SDS011;64592;52.168;21.040;2023-06-04T16:10:16;2.53;;;1.30;;
75912;SDS011;64592;52.168;21.040;2023-06-04T16:15:17;2.72;;;1.50;;
75912;SDS011;64592;52.168;21.040;2023-06-04T16:20:19;3.83;;;2.00;;
75912;SDS011;64592;52.168;21.040;2023-06-04T16:25:22;3.58;;;1.55;;
75912;SDS011;64592;52.168;21.040;2023-06-04T16:30:24;3.55;;;1.75;;
75912;SDS011;64592;52.168;21.040;2023-06-04T16:35:25;3.65;;;1.48;;
75912;SDS011;64592;52.168;21.040;2023-06-04T16:40:29;3.80;;;1.50;;
75912;SDS011;64592;52.168;21.040;2023-06-04T16:45:30;3.15;;;1.60;;
75912;SDS011;64592;52.168;21.040;2023-06-04T16:50:32;3.08;;;1.40;;
75912;SDS011;64592;52.168;21.040;2023-06-04T16:55:37;2.85;;;1.40;;
75912;SDS011;64592;52.168;21.040;2023-06-04T17:00:39;2.38;;;1.20;;
75912;SDS011;64592;52.168;21.040;2023-06-04T17:05:41;1.67;;;1.02;;
75912;SDS011;64592;52.168;21.040;2023-06-04T17:10:44;2.33;;;1.48;;
75912;SDS011;64592;52.168;21.040;2023-06-04T17:15:47;3.70;;;1.58;;
75912;SDS011;64592;52.168;21.040;2023-06-04T17:20:49;2.08;;;1.40;;
75912;SDS011;64592;52.168;21.040;2023-06-04T17:25:52;5.40;;;1.58;;
75912;SDS011;64592;52.168;21.040;2023-06-04T17:30:54;5.82;;;1.65;;
75912;SDS011;64592;52.168;21.040;2023-06-04T17:35:55;7.15;;;1.75;;
75912;SDS011;64592;52.168;21.040;2023-06-04T17:40:58;2.95;;;1.40;;
75912;SDS011;64592;52.168;21.040;2023-06-04T17:46:00;2.95;;;1.52;;
75912;SDS011;64592;52.168;21.040;2023-06-04T17:51:02;3.03;;;1.38;;
75912;SDS011;64592;52.168;21.040;2023-06-04T17:56:06;2.40;;;1.33;;
75912;SDS011;64592;52.168;21.040;2023-06-04T18:01:08;2.97;;;1.45;;
75912;SDS011;64592;52.168;21.040;2023-06-04T18:06:09;2.35;;;1.40;;
75912;SDS011;64592;52.168;21.040;2023-06-04T18:11:12;5.55;;;1.83;;
75912;SDS011;64592;52.168;21.040;2023-06-04T18:16:14;2.63;;;1.63;;
75912;SDS011;64592;52.168;21.040;2023-06-04T18:21:16;6.43;;;1.90;;
75912;SDS011;64592;52.168;21.040;2023-06-04T18:26:19;3.45;;;1.52;;
75912;SDS011;64592;52.168;21.040;2023-06-04T18:31:21;5.30;;;3.53;;
75912;SDS011;64592;52.168;21.040;2023-06-04T18:36:22;2.90;;;1.58;;
75912;SDS011;64592;52.168;21.040;2023-06-04T18:41:25;4.65;;;1.60;;
75912;SDS011;64592;52.168;21.040;2023-06-04T18:46:27;2.95;;;1.70;;
75912;SDS011;64592;52.168;21.040;2023-06-04T18:51:29;2.85;;;1.42;;
75912;SDS011;64592;52.168;21.040;2023-06-04T18:56:32;3.83;;;1.63;;
75912;SDS011;64592;52.168;21.040;2023-06-04T19:01:34;6.65;;;1.80;;
75912;SDS011;64592;52.168;21.040;2023-06-04T19:06:35;5.78;;;2.22;;
75912;SDS011;64592;52.168;21.040;2023-06-04T19:11:38;8.48;;;2.00;;
75912;SDS011;64592;52.168;21.040;2023-06-04T19:16:40;5.35;;;2.40;;
75912;SDS011;64592;52.168;21.040;2023-06-04T19:21:45;4.38;;;2.97;;
75912;SDS011;64592;52.168;21.040;2023-06-04T19:26:49;2.85;;;1.77;;
75912;SDS011;64592;52.168;21.040;2023-06-04T19:31:51;8.45;;;2.15;;
75912;SDS011;64592;52.168;21.040;2023-06-04T19:36:52;4.88;;;1.83;;
75912;SDS011;64592;52.168;21.040;2023-06-04T19:41:55;3.38;;;1.90;;
75912;SDS011;64592;52.168;21.040;2023-06-04T19:46:57;3.67;;;2.00;;
75912;SDS011;64592;52.168;21.040;2023-06-04T19:51:59;9.68;;;2.53;;
75912;SDS011;64592;52.168;21.040;2023-06-04T19:57:02;3.45;;;2.05;;
75912;SDS011;64592;52.168;21.040;2023-06-04T20:02:04;5.85;;;3.03;;
75912;SDS011;64592;52.168;21.040;2023-06-04T20:07:06;6.13;;;2.33;;
75912;SDS011;64592;52.168;21.040;2023-06-04T20:12:09;6.93;;;2.20;;
75912;SDS011;64592;52.168;21.040;2023-06-04T20:17:11;8.73;;;3.30;;
75912;SDS011;64592;52.168;21.040;2023-06-04T20:22:13;7.15;;;2.58;;
75912;SDS011;64592;52.168;21.040;2023-06-04T20:27:16;6.65;;;2.13;;
75912;SDS011;64592;52.168;21.040;2023-06-04T20:32:18;4.85;;;2.20;;
75912;SDS011;64592;52.168;21.040;2023-06-04T20:37:19;7.07;;;2.90;;
75912;SDS011;64592;52.168;21.040;2023-06-04T20:42:23;5.25;;;2.30;;
75912;SDS011;64592;52.168;21.040;2023-06-04T20:47:25;4.50;;;2.08;;
75912;SDS011;64592;52.168;21.040;2023-06-04T20:52:27;5.47;;;2.60;;
75912;SDS011;64592;52.168;21.040;2023-06-04T20:57:30;12.25;;;3.40;;
75912;SDS011;64592;52.168;21.040;2023-06-04T21:02:31;7.10;;;3.65;;
75912;SDS011;64592;52.168;21.040;2023-06-04T21:07:33;13.90;;;3.95;;
75912;SDS011;64592;52.168;21.040;2023-06-04T21:12:36;8.45;;;3.65;;
75912;SDS011;64592;52.168;21.040;2023-06-04T21:17:38;7.88;;;3.08;;
75912;SDS011;64592;52.168;21.040;2023-06-04T21:22:39;5.95;;;2.80;;
75912;SDS011;64592;52.168;21.040;2023-06-04T21:27:42;8.65;;;3.15;;
75912;SDS011;64592;52.168;21.040;2023-06-04T21:32:44;6.25;;;3.47;;
75912;SDS011;64592;52.168;21.040;2023-06-04T21:37:46;5.32;;;2.65;;
75912;SDS011;64592;52.168;21.040;2023-06-04T21:42:49;4.93;;;2.65;;
75912;SDS011;64592;52.168;21.040;2023-06-04T21:47:51;4.10;;;2.38;;
75912;SDS011;64592;52.168;21.040;2023-06-04T21:52:53;6.38;;;2.65;;
75912;SDS011;64592;52.168;21.040;2023-06-04T21:57:56;4.32;;;2.50;;
75912;SDS011;64592;52.168;21.040;2023-06-04T22:02:57;5.72;;;2.72;;
75912;SDS011;64592;52.168;21.040;2023-06-04T22:07:59;7.15;;;3.20;;
75912;SDS011;64592;52.168;21.040;2023-06-04T22:13:03;8.10;;;2.97;;
75912;SDS011;64592;52.168;21.040;2023-06-04T22:18:05;8.50;;;3.15;;
75912;SDS011;64592;52.168;21.040;2023-06-04T22:23:07;4.80;;;2.88;;
75912;SDS011;64592;52.168;21.040;2023-06-04T22:28:10;4.05;;;2.70;;
75912;SDS011;64592;52.168;21.040;2023-06-04T22:33:11;5.60;;;2.97;;
75912;SDS011;64592;52.168;21.040;2023-06-04T22:38:13;7.25;;;2.80;;
75912;SDS011;64592;52.168;21.040;2023-06-04T22:43:16;5.32;;;2.63;;
75912;SDS011;64592;52.168;21.040;2023-06-04T22:48:18;4.43;;;2.42;;
75912;SDS011;64592;52.168;21.040;2023-06-04T22:53:19;7.80;;;2.95;;
75912;SDS011;64592;52.168;21.040;2023-06-04T22:58:24;4.93;;;2.92;;
75912;SDS011;64592;52.168;21.040;2023-06-04T23:03:26;6.57;;;3.42;;
75912;SDS011;64592;52.168;21.040;2023-06-04T23:08:27;4.55;;;2.70;;
75912;SDS011;64592;52.168;21.040;2023-06-04T23:13:30;7.07;;;2.95;;
75912;SDS011;64592;52.168;21.040;2023-06-04T23:18:32;6.05;;;2.55;;
75912;SDS011;64592;52.168;21.040;2023-06-04T23:23:34;4.18;;;2.50;;
75912;SDS011;64592;52.168;21.040;2023-06-04T23:28:37;6.35;;;3.40;;
75912;SDS011;64592;52.168;21.040;2023-06-04T23:33:38;3.38;;;2.58;;
75912;SDS011;64592;52.168;21.040;2023-06-04T23:38:40;4.95;;;3.15;;
75912;SDS011;64592;52.168;21.040;2023-06-04T23:43:43;4.20;;;2.72;;
75912;SDS011;64592;52.168;21.040;2023-06-04T23:48:45;11.70;;;2.92;;
75912;SDS011;64592;52.168;21.040;2023-06-04T23:53:47;6.03;;;3.20;;
75912;SDS011;64592;52.168;21.040;2023-06-04T23:58:50;6.07;;;3.03;;
